North Uniontown, Ohio
Current Conditions -  °F | °C
As of 8:54 PM on Thursday 20 Nov 2014 (Local Time) from KILN Reporting Station
Clear Clear  
Wind Chill: 14°   Ceiling: Unl
Heat Index: 24°   Visibility: 10mi
Dew Point: 13°   Wind: 9mph
Humidity: 62%   Direction: 270°W
Pressure: 30.18"   Gusts: NA
Location:  39.1546°N, 83.569°W
Report Text: KILN 210154Z AUTO 27008KT 10SM CLR M04/M11 A3018 RMK AO2 SLP255 T10441106
Loading
Personal Weather Stations






























Interactive Weather Map New forecast layout! Learn more

10-Day Weather Forecast

Advertisements
Track Severe Weather on mobile